sensor_id;sensor_type;location;lat;lon;timestamp;pressure;altitude;pressure_sealevel;temperature;humidity
52975;BME280;38839;45.186;5.720;2022-11-06T00:01:10;99494.84;;;14.86;51.01
52975;BME280;38839;45.186;5.720;2022-11-06T00:03:36;99488.53;;;14.98;50.67
52975;BME280;38839;45.186;5.720;2022-11-06T00:06:09;99509.78;;;15.39;49.68
52975;BME280;38839;45.186;5.720;2022-11-06T00:08:54;99499.69;;;15.14;50.24
52975;BME280;38839;45.186;5.720;2022-11-06T00:11:19;99498.72;;;15.20;49.78
52975;BME280;38839;45.186;5.720;2022-11-06T00:13:45;99499.25;;;15.40;49.55
52975;BME280;38839;45.186;5.720;2022-11-06T00:16:17;99494.56;;;15.56;49.03
52975;BME280;38839;45.186;5.720;2022-11-06T00:18:42;99482.94;;;15.71;48.86
52975;BME280;38839;45.186;5.720;2022-11-06T00:21:16;99490.78;;;15.74;48.76
52975;BME280;38839;45.186;5.720;2022-11-06T00:23:43;99489.19;;;15.62;48.77
52975;BME280;38839;45.186;5.720;2022-11-06T00:26:11;99493.78;;;15.53;49.00
52975;BME280;38839;45.186;5.720;2022-11-06T00:28:37;99495.84;;;15.34;49.79
52975;BME280;38839;45.186;5.720;2022-11-06T00:31:08;99493.22;;;15.34;49.93
52975;BME280;38839;45.186;5.720;2022-11-06T00:33:34;99489.19;;;15.62;49.31
52975;BME280;38839;45.186;5.720;2022-11-06T00:36:03;99487.53;;;15.58;49.50
52975;BME280;38839;45.186;5.720;2022-11-06T00:38:30;99477.22;;;15.46;49.39
52975;BME280;38839;45.186;5.720;2022-11-06T00:40:55;99467.63;;;15.43;49.61
52975;BME280;38839;45.186;5.720;2022-11-06T00:43:21;99478.19;;;15.42;49.73
52975;BME280;38839;45.186;5.720;2022-11-06T00:45:46;99484.78;;;15.13;49.82
52975;BME280;38839;45.186;5.720;2022-11-06T00:48:12;99479.16;;;14.83;50.50
52975;BME280;38839;45.186;5.720;2022-11-06T00:50:37;99479.50;;;14.60;51.18
52975;BME280;38839;45.186;5.720;2022-11-06T00:53:03;99475.22;;;15.09;50.20
52975;BME280;38839;45.186;5.720;2022-11-06T00:55:28;99484.88;;;15.10;49.77
52975;BME280;38839;45.186;5.720;2022-11-06T00:57:54;99479.16;;;14.82;50.32
52975;BME280;38839;45.186;5.720;2022-11-06T01:00:19;99474.59;;;14.95;50.27
52975;BME280;38839;45.186;5.720;2022-11-06T01:02:46;99464.03;;;14.98;50.30
52975;BME280;38839;45.186;5.720;2022-11-06T01:05:12;99469.22;;;15.01;50.12
52975;BME280;38839;45.186;5.720;2022-11-06T01:07:38;99478.25;;;14.84;50.09
52975;BME280;38839;45.186;5.720;2022-11-06T01:10:04;99488.84;;;14.13;52.35
52975;BME280;38839;45.186;5.720;2022-11-06T01:12:31;99487.38;;;13.89;53.05
52975;BME280;38839;45.186;5.720;2022-11-06T01:14:57;99488.28;;;14.55;51.79
52975;BME280;38839;45.186;5.720;2022-11-06T01:17:22;99475.56;;;14.89;50.36
52975;BME280;38839;45.186;5.720;2022-11-06T01:19:48;99464.91;;;14.98;49.92
52975;BME280;38839;45.186;5.720;2022-11-06T01:22:13;99470.38;;;14.84;50.40
52975;BME280;38839;45.186;5.720;2022-11-06T01:24:39;99467.63;;;14.91;50.43
52975;BME280;38839;45.186;5.720;2022-11-06T01:27:04;99460.56;;;14.96;50.08
52975;BME280;38839;45.186;5.720;2022-11-06T01:29:29;99459.47;;;15.09;49.88
52975;BME280;38839;45.186;5.720;2022-11-06T01:31:55;99458.63;;;15.07;49.83
52975;BME280;38839;45.186;5.720;2022-11-06T01:34:20;99460.69;;;14.86;49.83
52975;BME280;38839;45.186;5.720;2022-11-06T01:36:46;99462.91;;;14.57;50.88
52975;BME280;38839;45.186;5.720;2022-11-06T01:39:13;99452.34;;;14.60;51.05
52975;BME280;38839;45.186;5.720;2022-11-06T01:41:45;99448.50;;;14.82;50.49
52975;BME280;38839;45.186;5.720;2022-11-06T01:46:58;99445.00;;;14.20;51.90
52975;BME280;38839;45.186;5.720;2022-11-06T01:49:25;99457.06;;;14.35;51.84
52975;BME280;38839;45.186;5.720;2022-11-06T01:51:57;99439.88;;;14.74;50.87
52975;BME280;38839;45.186;5.720;2022-11-06T01:54:24;99441.63;;;14.75;50.48
52975;BME280;38839;45.186;5.720;2022-11-06T01:56:53;99441.16;;;14.45;51.30
52975;BME280;38839;45.186;5.720;2022-11-06T01:59:21;99434.94;;;14.53;51.30
52975;BME280;38839;45.186;5.720;2022-11-06T02:01:48;99437.16;;;14.17;52.09
52975;BME280;38839;45.186;5.720;2022-11-06T02:04:17;99433.44;;;14.33;51.88
52975;BME280;38839;45.186;5.720;2022-11-06T02:06:45;99436.06;;;14.35;51.97
52975;BME280;38839;45.186;5.720;2022-11-06T02:09:11;99433.84;;;14.05;52.29
52975;BME280;38839;45.186;5.720;2022-11-06T02:11:38;99427.50;;;14.22;52.26
52975;BME280;38839;45.186;5.720;2022-11-06T02:17:46;99417.50;;;14.48;50.70
52975;BME280;38839;45.186;5.720;2022-11-06T02:28:20;99409.41;;;14.00;52.33
52975;BME280;38839;45.186;5.720;2022-11-06T02:30:48;99407.19;;;14.33;51.12
52975;BME280;38839;45.186;5.720;2022-11-06T02:33:21;99402.50;;;14.55;50.54
52975;BME280;38839;45.186;5.720;2022-11-06T02:35:52;99397.06;;;14.71;50.34
52975;BME280;38839;45.186;5.720;2022-11-06T02:38:23;99401.44;;;14.70;50.02
52975;BME280;38839;45.186;5.720;2022-11-06T02:40:56;99409.03;;;14.28;50.96
52975;BME280;38839;45.186;5.720;2022-11-06T02:43:30;99398.22;;;14.49;50.65
52975;BME280;38839;45.186;5.720;2022-11-06T02:46:02;99386.75;;;14.55;50.58
52975;BME280;38839;45.186;5.720;2022-11-06T02:48:34;99385.84;;;14.61;50.46
52975;BME280;38839;45.186;5.720;2022-11-06T02:51:03;99390.88;;;14.73;50.05
52975;BME280;38839;45.186;5.720;2022-11-06T02:53:31;99384.72;;;14.76;49.71
52975;BME280;38839;45.186;5.720;2022-11-06T02:56:02;99390.78;;;14.79;49.74
52975;BME280;38839;45.186;5.720;2022-11-06T02:58:38;99393.44;;;14.78;49.96
52975;BME280;38839;45.186;5.720;2022-11-06T03:01:11;99392.03;;;14.57;50.37
52975;BME280;38839;45.186;5.720;2022-11-06T03:03:43;99397.06;;;14.71;49.85
52975;BME280;38839;45.186;5.720;2022-11-06T03:06:15;99382.31;;;14.62;50.27
52975;BME280;38839;45.186;5.720;2022-11-06T03:11:26;99385.91;;;14.55;50.65
52975;BME280;38839;45.186;5.720;2022-11-06T03:16:56;99385.94;;;13.91;51.68
52975;BME280;38839;45.186;5.720;2022-11-06T03:19:34;99392.16;;;13.82;52.29
52975;BME280;38839;45.186;5.720;2022-11-06T03:22:06;99392.34;;;13.65;52.64
52975;BME280;38839;45.186;5.720;2022-11-06T03:24:44;99390.97;;;13.34;53.25
52975;BME280;38839;45.186;5.720;2022-11-06T03:27:34;99395.66;;;13.80;52.21
52975;BME280;38839;45.186;5.720;2022-11-06T03:30:12;99403.97;;;14.16;51.33
52975;BME280;38839;45.186;5.720;2022-11-06T03:33:14;99395.94;;;14.25;51.25
52975;BME280;38839;45.186;5.720;2022-11-06T03:35:49;99390.09;;;14.07;51.32
52975;BME280;38839;45.186;5.720;2022-11-06T03:43:57;99353.72;;;13.80;52.60
52975;BME280;38839;45.186;5.720;2022-11-06T03:46:25;99360.16;;;13.53;53.39
52975;BME280;38839;45.186;5.720;2022-11-06T03:48:54;99374.75;;;13.74;52.95
52975;BME280;38839;45.186;5.720;2022-11-06T03:51:26;99381.19;;;14.18;51.74
52975;BME280;38839;45.186;5.720;2022-11-06T03:55:00;99380.09;;;14.31;51.56
52975;BME280;38839;45.186;5.720;2022-11-06T03:57:10;99396.19;;;14.09;51.36
52975;BME280;38839;45.186;5.720;2022-11-06T03:59:45;99400.75;;;13.94;52.31
52975;BME280;38839;45.186;5.720;2022-11-06T04:02:14;99386.72;;;13.96;52.18
52975;BME280;38839;45.186;5.720;2022-11-06T04:04:59;99400.31;;;14.26;51.13
52975;BME280;38839;45.186;5.720;2022-11-06T04:07:40;99385.88;;;14.58;50.66
52975;BME280;38839;45.186;5.720;2022-11-06T04:10:28;99385.69;;;14.09;51.79
52975;BME280;38839;45.186;5.720;2022-11-06T04:13:13;99394.13;;;14.32;51.00
52975;BME280;38839;45.186;5.720;2022-11-06T04:15:57;99402.84;;;14.32;51.21
52975;BME280;38839;45.186;5.720;2022-11-06T04:18:23;99414.28;;;14.28;51.26
52975;BME280;38839;45.186;5.720;2022-11-06T04:27:07;99414.66;;;14.64;50.62
52975;BME280;38839;45.186;5.720;2022-11-06T04:29:47;99414.13;;;14.40;51.14
52975;BME280;38839;45.186;5.720;2022-11-06T04:35:20;99409.03;;;14.28;51.45
52975;BME280;38839;45.186;5.720;2022-11-06T04:43:15;99396.31;;;13.21;53.86
52975;BME280;38839;45.186;5.720;2022-11-06T04:45:49;99397.47;;;13.76;52.61
52975;BME280;38839;45.186;5.720;2022-11-06T04:48:17;99397.19;;;13.99;51.60
52975;BME280;38839;45.186;5.720;2022-11-06T04:50:53;99381.97;;;13.58;52.51
52975;BME280;38839;45.186;5.720;2022-11-06T04:53:20;99377.50;;;13.66;52.22
52975;BME280;38839;45.186;5.720;2022-11-06T04:55:49;99379.06;;;13.81;51.67
52975;BME280;38839;45.186;5.720;2022-11-06T04:58:16;99385.72;;;13.34;52.66
52975;BME280;38839;45.186;5.720;2022-11-06T05:00:45;99383.13;;;13.27;53.56
52975;BME280;38839;45.186;5.720;2022-11-06T05:03:11;99385.75;;;13.31;53.09
52975;BME280;38839;45.186;5.720;2022-11-06T05:05:37;99373.41;;;13.43;52.92
52975;BME280;38839;45.186;5.720;2022-11-06T05:08:03;99372.63;;;13.31;53.08
52975;BME280;38839;45.186;5.720;2022-11-06T05:10:28;99375.34;;;13.18;53.50
52975;BME280;38839;45.186;5.720;2022-11-06T05:12:53;99366.75;;;13.07;53.72
52975;BME280;38839;45.186;5.720;2022-11-06T05:15:19;99364.06;;;13.15;53.63
52975;BME280;38839;45.186;5.720;2022-11-06T05:17:44;99356.50;;;12.84;54.34
52975;BME280;38839;45.186;5.720;2022-11-06T05:20:10;99361.97;;;12.56;54.96
52975;BME280;38839;45.186;5.720;2022-11-06T05:22:40;99354.00;;;12.68;54.82
52975;BME280;38839;45.186;5.720;2022-11-06T05:25:33;99347.34;;;12.31;55.95
52975;BME280;38839;45.186;5.720;2022-11-06T05:28:00;99344.59;;;12.47;55.42
52975;BME280;38839;45.186;5.720;2022-11-06T05:30:26;99340.91;;;12.67;54.99
52975;BME280;38839;45.186;5.720;2022-11-06T05:32:52;99332.59;;;13.16;53.64
52975;BME280;38839;45.186;5.720;2022-11-06T05:35:19;99333.97;;;13.53;52.65
52975;BME280;38839;45.186;5.720;2022-11-06T05:37:44;99331.34;;;13.53;52.35
52975;BME280;38839;45.186;5.720;2022-11-06T05:40:10;99322.63;;;13.52;52.56
52975;BME280;38839;45.186;5.720;2022-11-06T05:42:40;99313.59;;;13.75;51.48
52975;BME280;38839;45.186;5.720;2022-11-06T05:45:06;99308.19;;;13.84;51.13
52975;BME280;38839;45.186;5.720;2022-11-06T05:47:32;99297.44;;;13.39;52.02
52975;BME280;38839;45.186;5.720;2022-11-06T05:49:58;99297.59;;;12.37;54.82
52975;BME280;38839;45.186;5.720;2022-11-06T05:52:24;99298.44;;;12.37;55.10
52975;BME280;38839;45.186;5.720;2022-11-06T05:54:49;99301.19;;;12.19;55.38
52975;BME280;38839;45.186;5.720;2022-11-06T05:57:15;99293.53;;;11.96;56.04
52975;BME280;38839;45.186;5.720;2022-11-06T05:59:40;99281.94;;;12.29;55.33
52975;BME280;38839;45.186;5.720;2022-11-06T06:02:06;99291.91;;;12.81;54.29
52975;BME280;38839;45.186;5.720;2022-11-06T06:04:31;99289.34;;;12.80;54.20
52975;BME280;38839;45.186;5.720;2022-11-06T06:06:57;99281.31;;;12.94;53.81
52975;BME280;38839;45.186;5.720;2022-11-06T06:09:22;99280.88;;;12.52;54.84
52975;BME280;38839;45.186;5.720;2022-11-06T06:11:52;99283.38;;;12.64;54.60
52975;BME280;38839;45.186;5.720;2022-11-06T06:14:19;99277.47;;;12.42;55.49
52975;BME280;38839;45.186;5.720;2022-11-06T06:16:45;99277.97;;;12.79;54.40
52975;BME280;38839;45.186;5.720;2022-11-06T06:19:11;99279.59;;;12.93;53.83
52975;BME280;38839;45.186;5.720;2022-11-06T06:21:36;99285.09;;;12.68;54.37
52975;BME280;38839;45.186;5.720;2022-11-06T06:24:03;99286.91;;;13.43;52.48
52975;BME280;38839;45.186;5.720;2022-11-06T06:26:29;99283.78;;;13.11;52.86
52975;BME280;38839;45.186;5.720;2022-11-06T06:28:55;99283.22;;;12.79;53.83
52975;BME280;38839;45.186;5.720;2022-11-06T06:31:20;99279.88;;;12.65;54.48
52975;BME280;38839;45.186;5.720;2022-11-06T06:33:46;99282.41;;;12.76;53.44
52975;BME280;38839;45.186;5.720;2022-11-06T06:36:11;99268.84;;;12.31;54.85
52975;BME280;38839;45.186;5.720;2022-11-06T06:38:36;99280.50;;;11.79;55.74
52975;BME280;38839;45.186;5.720;2022-11-06T06:41:03;99284.13;;;11.50;57.13
52975;BME280;38839;45.186;5.720;2022-11-06T06:43:30;99287.75;;;11.15;58.03
52975;BME280;38839;45.186;5.720;2022-11-06T06:46:00;99282.56;;;11.12;58.68
52975;BME280;38839;45.186;5.720;2022-11-06T06:48:26;99279.03;;;11.25;58.22
52975;BME280;38839;45.186;5.720;2022-11-06T06:50:51;99275.22;;;11.85;56.98
52975;BME280;38839;45.186;5.720;2022-11-06T06:53:17;99266.56;;;11.78;56.79
52975;BME280;38839;45.186;5.720;2022-11-06T06:55:43;99269.88;;;12.10;56.25
52975;BME280;38839;45.186;5.720;2022-11-06T06:58:08;99271.03;;;12.75;54.57
52975;BME280;38839;45.186;5.720;2022-11-06T07:00:35;99275.41;;;12.73;54.12
52975;BME280;38839;45.186;5.720;2022-11-06T07:03:00;99283.88;;;12.02;55.36
52975;BME280;38839;45.186;5.720;2022-11-06T07:05:26;99285.13;;;11.23;57.71
52975;BME280;38839;45.186;5.720;2022-11-06T07:07:51;99287.78;;;11.09;58.46
52975;BME280;38839;45.186;5.720;2022-11-06T07:10:17;99279.00;;;11.35;58.10
52975;BME280;38839;45.186;5.720;2022-11-06T07:12:42;99274.13;;;12.23;55.71
52975;BME280;38839;45.186;5.720;2022-11-06T07:15:08;99289.16;;;11.93;56.20
52975;BME280;38839;45.186;5.720;2022-11-06T07:17:33;99282.91;;;12.17;55.81
52975;BME280;38839;45.186;5.720;2022-11-06T07:19:59;99289.34;;;12.78;53.86
52975;BME280;38839;45.186;5.720;2022-11-06T07:22:27;99293.72;;;12.76;54.21
52975;BME280;38839;45.186;5.720;2022-11-06T07:24:53;99302.38;;;12.86;53.84
52975;BME280;38839;45.186;5.720;2022-11-06T07:27:18;99301.81;;;13.37;53.01
52975;BME280;38839;45.186;5.720;2022-11-06T07:29:44;99297.13;;;13.63;52.07
52975;BME280;38839;45.186;5.720;2022-11-06T07:32:09;99287.41;;;13.72;51.68
52975;BME280;38839;45.186;5.720;2022-11-06T07:34:34;99286.69;;;13.62;51.71
52975;BME280;38839;45.186;5.720;2022-11-06T07:37:04;99291.78;;;12.95;53.03
52975;BME280;38839;45.186;5.720;2022-11-06T07:39:30;99294.06;;;13.27;52.58
52975;BME280;38839;45.186;5.720;2022-11-06T07:41:55;99292.63;;;12.00;55.50
52975;BME280;38839;45.186;5.720;2022-11-06T07:44:21;99287.44;;;11.92;56.18
52975;BME280;38839;45.186;5.720;2022-11-06T07:46:46;99294.56;;;11.56;56.84
52975;BME280;38839;45.186;5.720;2022-11-06T07:49:12;99288.38;;;11.74;56.46
52975;BME280;38839;45.186;5.720;2022-11-06T07:51:37;99282.16;;;12.96;54.59
52975;BME280;38839;45.186;5.720;2022-11-06T07:54:03;99288.59;;;12.65;54.51
52975;BME280;38839;45.186;5.720;2022-11-06T07:56:28;99278.63;;;13.01;53.74
52975;BME280;38839;45.186;5.720;2022-11-06T07:58:54;99276.38;;;13.45;52.96
52975;BME280;38839;45.186;5.720;2022-11-06T08:01:19;99278.91;;;13.54;52.57
52975;BME280;38839;45.186;5.720;2022-11-06T08:03:45;99274.09;;;13.85;51.92
52975;BME280;38839;45.186;5.720;2022-11-06T08:06:10;99276.53;;;13.99;51.71
52975;BME280;38839;45.186;5.720;2022-11-06T08:08:36;99267.22;;;14.34;50.73
52975;BME280;38839;45.186;5.720;2022-11-06T08:11:03;99272.97;;;14.03;51.22
52975;BME280;38839;45.186;5.720;2022-11-06T08:13:29;99263.59;;;14.41;50.39
52975;BME280;38839;45.186;5.720;2022-11-06T08:15:54;99270.38;;;14.55;50.01
52975;BME280;38839;45.186;5.720;2022-11-06T08:18:20;99271.31;;;15.02;49.25
52975;BME280;38839;45.186;5.720;2022-11-06T08:20:45;99267.72;;;15.06;48.91
52975;BME280;38839;45.186;5.720;2022-11-06T08:23:12;99257.50;;;14.91;48.87
52975;BME280;38839;45.186;5.720;2022-11-06T08:25:38;99258.19;;;15.00;49.13
52975;BME280;38839;45.186;5.720;2022-11-06T08:28:04;99255.41;;;15.08;49.19
52975;BME280;38839;45.186;5.720;2022-11-06T08:30:30;99247.22;;;14.78;49.02
52975;BME280;38839;45.186;5.720;2022-11-06T08:33:05;99241.69;;;13.89;51.32
52975;BME280;38839;45.186;5.720;2022-11-06T08:35:32;99236.44;;;13.91;51.54
52975;BME280;38839;45.186;5.720;2022-11-06T08:37:58;99245.84;;;13.45;51.99
52975;BME280;38839;45.186;5.720;2022-11-06T08:40:24;99246.00;;;13.32;53.06
52975;BME280;38839;45.186;5.720;2022-11-06T08:42:49;99246.94;;;13.88;51.60
52975;BME280;38839;45.186;5.720;2022-11-06T08:45:15;99242.91;;;14.74;49.83
52975;BME280;38839;45.186;5.720;2022-11-06T08:47:40;99245.75;;;15.08;48.64
52975;BME280;38839;45.186;5.720;2022-11-06T08:50:06;99242.97;;;15.58;47.88
52975;BME280;38839;45.186;5.720;2022-11-06T08:52:31;99243.28;;;15.85;47.11
52975;BME280;38839;45.186;5.720;2022-11-06T08:54:57;99226.06;;;15.68;47.14
52975;BME280;38839;45.186;5.720;2022-11-06T08:57:22;99234.16;;;15.20;48.10
52975;BME280;38839;45.186;5.720;2022-11-06T08:59:48;99225.31;;;14.81;48.65
52975;BME280;38839;45.186;5.720;2022-11-06T09:02:13;99219.50;;;14.63;48.83
52975;BME280;38839;45.186;5.720;2022-11-06T09:04:39;99224.09;;;15.39;47.51
52975;BME280;38839;45.186;5.720;2022-11-06T09:07:05;99217.47;;;15.62;47.19
52975;BME280;38839;45.186;5.720;2022-11-06T09:09:31;99217.34;;;16.05;46.51
52975;BME280;38839;45.186;5.720;2022-11-06T09:12:00;99223.31;;;16.82;44.91
52975;BME280;38839;45.186;5.720;2022-11-06T09:14:26;99220.72;;;17.12;44.22
52975;BME280;38839;45.186;5.720;2022-11-06T09:16:52;99220.97;;;17.03;44.17
52975;BME280;38839;45.186;5.720;2022-11-06T09:19:18;99222.66;;;16.73;44.01
52975;BME280;38839;45.186;5.720;2022-11-06T09:21:44;99213.72;;;16.45;44.72
52975;BME280;38839;45.186;5.720;2022-11-06T09:24:10;99209.28;;;16.47;44.32
52975;BME280;38839;45.186;5.720;2022-11-06T09:26:35;99207.75;;;16.04;44.51
52975;BME280;38839;45.186;5.720;2022-11-06T09:29:01;99209.06;;;15.85;45.46
52975;BME280;38839;45.186;5.720;2022-11-06T09:31:26;99211.44;;;16.66;44.63
52975;BME280;38839;45.186;5.720;2022-11-06T09:33:52;99215.69;;;16.72;43.65
52975;BME280;38839;45.186;5.720;2022-11-06T09:36:18;99214.03;;;16.33;44.09
52975;BME280;38839;45.186;5.720;2022-11-06T09:38:43;99203.66;;;16.27;44.55
52975;BME280;38839;45.186;5.720;2022-11-06T09:44:28;99205.41;;;16.94;43.02
52975;BME280;38839;45.186;5.720;2022-11-06T09:47:03;99192.88;;;16.69;44.17
52975;BME280;38839;45.186;5.720;2022-11-06T09:49:34;99197.63;;;16.56;44.20
52975;BME280;38839;45.186;5.720;2022-11-06T09:54:46;99200.31;;;16.55;44.11
52975;BME280;38839;45.186;5.720;2022-11-06T09:57:28;99204.16;;;15.69;45.53
52975;BME280;38839;45.186;5.720;2022-11-06T09:59:57;99195.53;;;16.69;44.29
52975;BME280;38839;45.186;5.720;2022-11-06T10:02:26;99196.16;;;17.10;43.41
52975;BME280;38839;45.186;5.720;2022-11-06T10:04:59;99196.28;;;17.65;42.28
52975;BME280;38839;45.186;5.720;2022-11-06T10:07:33;99189.81;;;17.75;41.93
52975;BME280;38839;45.186;5.720;2022-11-06T10:10:00;99189.09;;;16.79;43.26
52975;BME280;38839;45.186;5.720;2022-11-06T10:12:34;99202.06;;;16.88;43.23
52975;BME280;38839;45.186;5.720;2022-11-06T10:20:53;99183.31;;;16.99;43.36
52975;BME280;38839;45.186;5.720;2022-11-06T10:26:03;99177.50;;;17.18;43.35
52975;BME280;38839;45.186;5.720;2022-11-06T10:31:39;99176.75;;;16.48;43.12
52975;BME280;38839;45.186;5.720;2022-11-06T10:34:17;99179.63;;;16.74;42.80
52975;BME280;38839;45.186;5.720;2022-11-06T10:37:17;99179.34;;;17.14;42.43
52975;BME280;38839;45.186;5.720;2022-11-06T10:39:45;99173.25;;;16.82;42.58
52975;BME280;38839;45.186;5.720;2022-11-06T10:42:17;99171.38;;;17.74;41.58
52975;BME280;38839;45.186;5.720;2022-11-06T10:47:27;99164.88;;;16.34;42.56
52975;BME280;38839;45.186;5.720;2022-11-06T10:49:56;99156.19;;;16.30;43.69
52975;BME280;38839;45.186;5.720;2022-11-06T10:52:46;99153.13;;;16.78;43.15
52975;BME280;38839;45.186;5.720;2022-11-06T10:57:50;99145.22;;;17.39;41.86
52975;BME280;38839;45.186;5.720;2022-11-06T11:00:19;99142.25;;;17.77;41.33
52975;BME280;38839;45.186;5.720;2022-11-06T11:02:53;99143.31;;;17.43;42.05
52975;BME280;38839;45.186;5.720;2022-11-06T11:05:21;99133.13;;;17.60;41.66
52975;BME280;38839;45.186;5.720;2022-11-06T11:07:49;99135.06;;;18.08;41.01
52975;BME280;38839;45.186;5.720;2022-11-06T11:10:26;99121.84;;;17.55;42.21
52975;BME280;38839;45.186;5.720;2022-11-06T11:12:54;99122.84;;;18.31;41.34
52975;BME280;38839;45.186;5.720;2022-11-06T11:15:21;99115.56;;;18.13;41.97
52975;BME280;38839;45.186;5.720;2022-11-06T11:20:33;99093.47;;;17.90;41.83
52975;BME280;38839;45.186;5.720;2022-11-06T11:23:16;99098.50;;;17.69;41.73
52975;BME280;38839;45.186;5.720;2022-11-06T11:25:44;99100.16;;;18.00;41.79
52975;BME280;38839;45.186;5.720;2022-11-06T11:28:32;99079.69;;;18.07;41.09
52975;BME280;38839;45.186;5.720;2022-11-06T11:33:30;99064.88;;;18.28;41.27
52975;BME280;38839;45.186;5.720;2022-11-06T11:35:56;99061.66;;;18.20;41.24
52975;BME280;38839;45.186;5.720;2022-11-06T11:38:22;99057.81;;;18.03;41.06
52975;BME280;38839;45.186;5.720;2022-11-06T11:40:48;99055.56;;;18.18;41.08
52975;BME280;38839;45.186;5.720;2022-11-06T11:48:42;99042.41;;;18.16;40.14
52975;BME280;38839;45.186;5.720;2022-11-06T11:53:45;99031.53;;;18.25;40.46
52975;BME280;38839;45.186;5.720;2022-11-06T11:56:19;99035.16;;;18.46;40.02
52975;BME280;38839;45.186;5.720;2022-11-06T11:58:52;99029.59;;;18.54;40.19
52975;BME280;38839;45.186;5.720;2022-11-06T12:01:31;99025.78;;;19.07;39.34
52975;BME280;38839;45.186;5.720;2022-11-06T12:03:58;99024.03;;;19.50;38.53
52975;BME280;38839;45.186;5.720;2022-11-06T12:06:24;99023.47;;;19.64;38.36
52975;BME280;38839;45.186;5.720;2022-11-06T12:08:52;99022.50;;;19.24;39.13
52975;BME280;38839;45.186;5.720;2022-11-06T12:11:24;99010.78;;;18.85;39.68
52975;BME280;38839;45.186;5.720;2022-11-06T12:16:44;99010.16;;;19.01;39.69
52975;BME280;38839;45.186;5.720;2022-11-06T12:19:11;99001.44;;;18.99;39.67
52975;BME280;38839;45.186;5.720;2022-11-06T12:21:39;99009.75;;;19.54;38.61
52975;BME280;38839;45.186;5.720;2022-11-06T12:24:24;99006.84;;;19.60;38.90
52975;BME280;38839;45.186;5.720;2022-11-06T12:26:53;99006.31;;;19.52;39.02
52975;BME280;38839;45.186;5.720;2022-11-06T12:29:38;98996.75;;;20.11;37.97
52975;BME280;38839;45.186;5.720;2022-11-06T12:40:20;98987.53;;;20.20;38.13
52975;BME280;38839;45.186;5.720;2022-11-06T12:43:36;98986.00;;;20.54;37.70
52975;BME280;38839;45.186;5.720;2022-11-06T13:05:54;98965.53;;;21.13;36.65
52975;BME280;38839;45.186;5.720;2022-11-06T13:11:27;98956.19;;;20.86;36.50
52975;BME280;38839;45.186;5.720;2022-11-06T13:24:33;98962.72;;;20.79;36.42
52975;BME280;38839;45.186;5.720;2022-11-06T13:27:41;98960.00;;;21.17;36.00
52975;BME280;38839;45.186;5.720;2022-11-06T13:30:26;98959.75;;;21.04;36.28
52975;BME280;38839;45.186;5.720;2022-11-06T13:33:01;98956.19;;;20.86;36.23
52975;BME280;38839;45.186;5.720;2022-11-06T13:35:31;98948.13;;;21.07;36.59
52975;BME280;38839;45.186;5.720;2022-11-06T13:38:01;98949.03;;;20.88;36.76
52975;BME280;38839;45.186;5.720;2022-11-06T13:40:34;98945.13;;;20.96;36.86
52975;BME280;38839;45.186;5.720;2022-11-06T13:43:08;98940.66;;;21.15;36.69
52975;BME280;38839;45.186;5.720;2022-11-06T13:48:36;98945.13;;;20.96;37.03
52975;BME280;38839;45.186;5.720;2022-11-06T13:54:27;98949.16;;;20.85;37.14
52975;BME280;38839;45.186;5.720;2022-11-06T14:08:05;98956.59;;;20.60;36.76
52975;BME280;38839;45.186;5.720;2022-11-06T14:10:37;98954.63;;;20.82;36.55
52975;BME280;38839;45.186;5.720;2022-11-06T14:13:12;98956.50;;;20.80;36.38
52975;BME280;38839;45.186;5.720;2022-11-06T14:15:39;98953.06;;;20.78;36.66
52975;BME280;38839;45.186;5.720;2022-11-06T14:18:21;98951.03;;;20.83;36.58
52975;BME280;38839;45.186;5.720;2022-11-06T14:20:48;98954.91;;;20.76;36.33
52975;BME280;38839;45.186;5.720;2022-11-06T14:28:33;98964.34;;;21.01;36.22
52975;BME280;38839;45.186;5.720;2022-11-06T14:30:59;98953.13;;;21.13;36.08
52975;BME280;38839;45.186;5.720;2022-11-06T14:38:44;98948.97;;;21.44;35.77
52975;BME280;38839;45.186;5.720;2022-11-06T14:44:26;98953.31;;;21.45;35.61
52975;BME280;38839;45.186;5.720;2022-11-06T14:46:57;98957.03;;;21.41;35.47
52975;BME280;38839;45.186;5.720;2022-11-06T14:49:37;98972.84;;;21.44;35.70
52975;BME280;38839;45.186;5.720;2022-11-06T14:52:07;98962.50;;;21.38;35.89
52975;BME280;38839;45.186;5.720;2022-11-06T14:54:37;98977.34;;;21.42;35.89
52975;BME280;38839;45.186;5.720;2022-11-06T14:57:05;98969.09;;;21.48;35.62
52975;BME280;38839;45.186;5.720;2022-11-06T14:59:34;98963.94;;;21.45;35.63
52975;BME280;38839;45.186;5.720;2022-11-06T15:02:17;98958.50;;;21.48;35.80
52975;BME280;38839;45.186;5.720;2022-11-06T15:04:48;98969.44;;;21.40;35.63
52975;BME280;38839;45.186;5.720;2022-11-06T15:13:21;98981.69;;;21.25;36.01
52975;BME280;38839;45.186;5.720;2022-11-06T15:15:50;98986.63;;;21.33;36.07
52975;BME280;38839;45.186;5.720;2022-11-06T15:18:21;98992.97;;;21.12;36.39
52975;BME280;38839;45.186;5.720;2022-11-06T15:20:49;98991.47;;;21.06;36.43
52975;BME280;38839;45.186;5.720;2022-11-06T15:23:22;98997.19;;;21.16;36.23
52975;BME280;38839;45.186;5.720;2022-11-06T15:25:55;99007.59;;;21.20;36.02
52975;BME280;38839;45.186;5.720;2022-11-06T15:28:28;99006.72;;;21.20;36.33
52975;BME280;38839;45.186;5.720;2022-11-06T15:31:00;98996.84;;;21.23;36.27
52975;BME280;38839;45.186;5.720;2022-11-06T15:33:44;98993.13;;;21.45;35.76
52975;BME280;38839;45.186;5.720;2022-11-06T15:36:12;98992.69;;;21.18;36.39
52975;BME280;38839;45.186;5.720;2022-11-06T15:38:40;99002.44;;;21.17;36.35
52975;BME280;38839;45.186;5.720;2022-11-06T15:41:15;99001.72;;;21.14;36.34
52975;BME280;38839;45.186;5.720;2022-11-06T15:43:44;98999.44;;;21.06;36.36
52975;BME280;38839;45.186;5.720;2022-11-06T15:48:36;99003.16;;;21.02;36.70
52975;BME280;38839;45.186;5.720;2022-11-06T15:51:03;99009.22;;;20.86;36.81
52975;BME280;38839;45.186;5.720;2022-11-06T15:53:29;99010.94;;;20.87;36.92